Time;durP1;ratioP1;P1;durP2;ratioP2;P2;SDS_P1;SDS_P2;PMS_P1;PMS_P2;Temp;Humidity;BMP_temperature;BMP_pressure;BME280_temperature;BME280_humidity;BME280_pressure;Samples;Min_cycle;Max_cycle;Signal;HPM_P1;HPM_P2
2022/04/27 00:01:36;;;;;;;51.30;29.80;;;;;;;8.74;64.81;99170.92;105555;1281;97987;-69
2022/04/27 00:04:10;;;;;;;50.50;30.30;;;;;;;8.70;64.97;99172.96;105656;1284;112288;-70
2022/04/27 00:06:38;;;;;;;51.60;30.60;;;;;;;8.67;65.05;99173.85;105613;1282;98012;-71
2022/04/27 00:09:06;;;;;;;47.70;29.30;;;;;;;8.63;64.90;99171.95;105466;1284;107773;-70
2022/04/27 00:11:42;;;;;;;79.20;54.30;;;;;;;8.60;65.02;99176.52;105660;1284;97973;-69
2022/04/27 00:14:10;;;;;;;49.70;29.50;;;;;;;8.58;65.05;99175.59;105587;1283;98623;-69
2022/04/27 00:16:38;;;;;;;49.60;30.10;;;;;;;8.56;65.12;99178.57;105634;1284;111771;-69
2022/04/27 00:19:05;;;;;;;48.00;28.90;;;;;;;8.53;65.13;99178.92;105636;1281;95628;-69
2022/04/27 00:21:33;;;;;;;47.10;28.50;;;;;;;8.52;65.06;99180.77;105664;1284;108054;-70
2022/04/27 00:24:02;;;;;;;46.10;27.40;;;;;;;8.49;65.23;99179.33;105675;1282;97967;-68
2022/04/27 00:26:31;;;;;;;43.20;26.30;;;;;;;8.44;65.16;99180.16;105690;1283;95392;-71
2022/04/27 00:28:59;;;;;;;45.80;27.70;;;;;;;8.41;65.23;99187.04;105682;1284;112009;-69
2022/04/27 00:31:29;;;;;;;47.70;28.20;;;;;;;8.40;65.17;99185.87;105677;1284;95398;-69
2022/04/27 00:34:00;;;;;;;45.40;26.40;;;;;;;8.39;65.41;99184.71;105571;1284;108384;-69
2022/04/27 00:36:31;;;;;;;45.50;26.60;;;;;;;8.36;65.30;99189.14;105264;1284;97992;-70
2022/04/27 00:39:04;;;;;;;44.90;27.50;;;;;;;8.33;65.44;99191.08;105588;1284;96319;-68
2022/04/27 00:41:32;;;;;;;52.10;30.00;;;;;;;8.31;65.33;99193.30;105573;1283;112001;-69
2022/04/27 00:44:04;;;;;;;54.00;33.20;;;;;;;8.30;65.36;99193.19;105684;1284;98012;-69
2022/04/27 00:46:32;;;;;;;53.20;30.80;;;;;;;8.29;65.42;99193.07;105553;1284;108338;-70
2022/04/27 00:48:59;;;;;;;51.50;30.60;;;;;;;8.28;65.37;99188.91;105512;1283;98542;-69
2022/04/27 00:51:29;;;;;;;52.10;30.60;;;;;;;8.26;65.36;99184.79;105635;1284;97867;-68
2022/04/27 00:54:01;;;;;;;49.70;29.10;;;;;;;8.23;65.41;99187.07;105694;1284;112536;-71
2022/04/27 00:56:34;;;;;;;43.70;27.40;;;;;;;8.23;65.53;99184.96;105653;1284;98676;-68
2022/04/27 00:59:02;;;;;;;49.60;29.20;;;;;;;8.22;65.39;99187.31;105539;1283;108339;-69
2022/04/27 01:01:33;;;;;;;45.80;26.80;;;;;;;8.21;65.61;99179.27;105317;1284;95847;-68
2022/04/27 01:04:08;;;;;;;46.50;27.70;;;;;;;8.21;65.61;99183.84;105511;1284;97895;-70
2022/04/27 01:06:39;;;;;;;44.00;26.30;;;;;;;8.21;65.65;99182.62;105613;1284;112022;-67
2022/04/27 01:09:09;;;;;;;47.80;28.10;;;;;;;8.21;65.67;99185.62;105609;1282;95256;-69
2022/04/27 01:11:37;;;;;;;49.90;29.50;;;;;;;8.20;65.64;99191.48;105603;1283;108356;-70
2022/04/27 01:14:04;;;;;;;52.20;30.20;;;;;;;8.18;65.71;99190.55;105465;1284;95363;-70
2022/04/27 01:16:33;;;;;;;50.30;29.40;;;;;;;8.17;65.82;99195.58;105563;1283;96632;-69
2022/04/27 01:19:05;;;;;;;54.80;31.10;;;;;;;8.18;65.87;99196.72;105593;1284;112146;-68
2022/04/27 01:21:36;;;;;;;52.50;30.60;;;;;;;8.19;65.97;99198.46;105669;1283;96583;-70
2022/04/27 01:24:07;;;;;;;54.90;31.60;;;;;;;8.20;65.85;99193.63;105649;1283;108710;-69
2022/04/27 01:26:35;;;;;;;52.30;31.40;;;;;;;8.19;66.02;99193.45;105684;1283;97884;-69
2022/04/27 01:29:05;;;;;;;49.30;28.70;;;;;;;8.21;66.18;99191.98;105690;1283;97869;-68
2022/04/27 01:31:33;;;;;;;46.90;29.20;;;;;;;8.22;65.94;99196.67;105493;1284;111600;-66
2022/04/27 01:34:05;;;;;;;50.90;30.70;;;;;;;8.23;66.19;99192.20;105635;1283;97781;-66
2022/04/27 01:36:33;;;;;;;50.30;30.20;;;;;;;8.23;66.17;99191.67;105655;1283;108419;-67
2022/04/27 01:39:09;;;;;;;51.50;30.30;;;;;;;8.22;65.96;99191.74;105676;1283;95297;-69
2022/04/27 01:41:37;;;;;;;49.40;29.60;;;;;;;8.23;66.33;99194.67;105683;1283;98609;-68
2022/04/27 01:44:07;;;;;;;50.20;30.70;;;;;;;8.17;66.31;99194.69;105670;1283;112320;-68
2022/04/27 01:46:37;;;;;;;50.80;30.20;;;;;;;8.11;66.23;99196.80;105695;1283;97972;-68
2022/04/27 01:49:08;;;;;;;55.30;31.20;;;;;;;8.12;66.45;99198.34;105694;1283;108670;-69
2022/04/27 01:54:23;;;;;;;55.30;31.90;;;;;;;8.05;66.18;99212.52;105747;1283;97884;-68
2022/04/27 01:56:53;;;;;;;51.70;30.00;;;;;;;8.08;66.49;99213.45;105713;1283;111151;-68
2022/04/27 01:59:21;;;;;;;50.70;30.30;;;;;;;8.10;66.54;99206.21;105631;1282;97996;-68
2022/04/27 02:01:49;;;;;;;49.20;29.70;;;;;;;8.14;66.69;99203.55;105593;1282;107619;-69
2022/04/27 02:04:20;;;;;;;49.90;29.90;;;;;;;8.16;66.56;99205.69;105577;1282;96432;-70
2022/04/27 02:06:48;;;;;;;49.50;28.90;;;;;;;8.19;66.49;99210.11;105657;1282;97966;-70
2022/04/27 02:09:16;;;;;;;51.00;31.00;;;;;;;8.20;66.44;99219.21;105590;1282;111901;-69
2022/04/27 02:11:44;;;;;;;51.50;29.40;;;;;;;8.20;66.59;99218.84;105598;1282;98073;-65
2022/04/27 02:14:12;;;;;;;57.00;32.20;;;;;;;8.20;66.72;99215.66;105675;1282;108743;-65
2022/04/27 02:16:40;;;;;;;52.50;32.20;;;;;;;8.21;66.57;99222.34;105513;1283;95360;-65
2022/04/27 02:19:08;;;;;;;53.60;29.90;;;;;;;8.23;66.67;99221.55;105672;1283;97954;-66
2022/04/27 02:21:36;;;;;;;52.70;31.10;;;;;;;8.23;66.68;99218.90;105681;1283;111701;-68
2022/04/27 02:24:08;;;;;;;49.50;29.10;;;;;;;8.23;66.83;99222.22;105700;1283;97981;-66
2022/04/27 02:26:36;;;;;;;50.20;29.30;;;;;;;8.24;66.81;99220.41;105644;1283;107691;-65
2022/04/27 02:29:04;;;;;;;49.70;30.40;;;;;;;8.25;66.81;99215.25;105696;1283;97949;-64
2022/04/27 02:31:32;;;;;;;48.50;29.60;;;;;;;8.25;66.72;99219.45;105693;1283;95271;-65
2022/04/27 02:34:05;;;;;;;47.80;28.90;;;;;;;8.26;66.96;99215.89;105560;1283;111359;-67
2022/04/27 02:36:33;;;;;;;51.90;30.30;;;;;;;8.26;66.81;99211.66;105527;1283;97893;-64
2022/04/27 02:39:07;;;;;;;49.00;29.10;;;;;;;8.26;66.87;99208.27;105493;1282;108669;-66
2022/04/27 02:41:35;;;;;;;48.40;29.70;;;;;;;8.27;66.94;99204.86;105395;1284;96353;-67
2022/04/27 02:44:03;;;;;;;49.00;30.50;;;;;;;8.27;67.18;99209.78;105660;1283;97983;-67
2022/04/27 02:46:32;;;;;;;53.50;33.00;;;;;;;8.28;66.96;99204.30;105320;1283;111841;-69
2022/04/27 02:51:51;;;;;;;50.90;31.40;;;;;;;8.27;67.05;99207.00;105565;1283;108414;-67
2022/04/27 02:54:24;;;;;;;47.40;30.50;;;;;;;8.27;67.02;99202.05;105463;1283;97941;-69
2022/04/27 02:56:51;;;;;;;48.90;30.30;;;;;;;8.27;67.08;99209.80;105436;1284;97907;-68
2022/04/27 02:59:22;;;;;;;49.00;30.60;;;;;;;8.26;67.03;99205.27;105520;1283;112049;-69
2022/04/27 03:01:52;;;;;;;53.70;33.40;;;;;;;8.26;67.08;99202.25;105514;1283;97660;-69
2022/04/27 03:04:23;;;;;;;52.50;31.40;;;;;;;8.26;67.29;99202.81;105513;1283;108012;-68
2022/04/27 03:06:54;;;;;;;55.30;32.00;;;;;;;8.25;67.20;99201.27;105513;1283;97986;-70
2022/04/27 03:09:23;;;;;;;49.60;31.30;;;;;;;8.25;67.15;99203.05;105582;1283;97973;-71
2022/04/27 03:11:59;;;;;;;52.60;31.80;;;;;;;8.24;67.37;99213.48;105688;1283;112047;-70
2022/04/27 03:14:31;;;;;;;51.90;31.20;;;;;;;8.24;67.12;99216.90;105539;1282;97910;-71
2022/04/27 03:16:59;;;;;;;53.40;32.50;;;;;;;8.23;67.34;99215.89;105615;1283;107682;-70
2022/04/27 03:19:27;;;;;;;53.30;32.60;;;;;;;8.22;67.31;99219.48;105428;1284;97957;-68
2022/04/27 03:21:58;;;;;;;55.60;33.00;;;;;;;8.21;67.37;99220.95;105649;1283;97892;-68
2022/04/27 03:24:26;;;;;;;52.40;33.00;;;;;;;8.19;67.30;99217.67;105645;1283;111092;-70
2022/04/27 03:26:53;;;;;;;53.00;32.20;;;;;;;8.19;67.33;99222.29;105273;1282;98628;-72
2022/04/27 03:29:21;;;;;;;53.40;33.80;;;;;;;8.19;67.45;99228.95;105536;1282;107727;-70
2022/04/27 03:31:49;;;;;;;56.10;34.10;;;;;;;8.20;67.28;99227.34;105589;1283;97986;-69
2022/04/27 03:34:17;;;;;;;51.60;31.30;;;;;;;8.19;67.35;99229.19;105654;1283;97969;-67
2022/04/27 03:36:46;;;;;;;54.30;33.00;;;;;;;8.18;67.56;99226.22;105426;1283;112478;-69
2022/04/27 03:39:13;;;;;;;52.10;30.90;;;;;;;8.18;67.35;99237.37;105671;1282;98567;-69
2022/04/27 03:42:07;;;;;;;49.60;30.00;;;;;;;8.19;67.62;99239.09;102324;1283;4529023;-70
2022/04/27 03:44:35;;;;;;;53.60;32.70;;;;;;;8.19;67.60;99244.73;105658;1283;95338;-69
2022/04/27 03:47:07;;;;;;;50.20;30.20;;;;;;;8.20;67.50;99246.42;105466;1282;95286;-69
2022/04/27 03:49:36;;;;;;;51.00;31.50;;;;;;;8.22;67.47;99246.32;105655;1283;112251;-69
2022/04/27 03:52:07;;;;;;;48.60;30.40;;;;;;;8.23;67.55;99250.18;105677;1283;95320;-70
2022/04/27 03:54:36;;;;;;;51.50;31.30;;;;;;;8.23;67.50;99248.02;105334;1284;108528;-69
2022/04/27 03:57:05;;;;;;;56.30;33.50;;;;;;;8.23;67.49;99249.77;105635;1283;97910;-68
2022/04/27 03:59:35;;;;;;;52.00;31.70;;;;;;;8.26;67.57;99247.71;105647;1283;97875;-70
2022/04/27 04:02:06;;;;;;;55.60;32.20;;;;;;;8.28;67.69;99247.39;105605;1282;111427;-68
2022/04/27 04:04:35;;;;;;;51.70;29.50;;;;;;;8.30;67.56;99251.67;105629;1283;96289;-69
2022/04/27 04:07:12;;;;;;;48.20;30.30;;;;;;;8.31;67.67;99256.17;105667;1282;109668;-70
2022/04/27 04:09:43;;;;;;;49.10;29.80;;;;;;;8.33;67.78;99256.77;105610;1283;97984;-68
2022/04/27 04:12:11;;;;;;;45.10;26.80;;;;;;;8.35;67.66;99260.18;105652;1283;97889;-68
2022/04/27 04:14:38;;;;;;;46.40;28.30;;;;;;;8.39;67.78;99262.83;105551;1283;111966;-70
2022/04/27 04:17:06;;;;;;;48.30;27.90;;;;;;;8.41;67.75;99260.20;105448;1283;98019;-69
2022/04/27 04:19:36;;;;;;;43.20;26.40;;;;;;;8.42;67.80;99262.07;105505;1283;108499;-67
2022/04/27 04:22:06;;;;;;;41.60;25.10;;;;;;;8.43;67.85;99264.67;105460;1283;96441;-68
2022/04/27 04:24:34;;;;;;;41.10;25.70;;;;;;;8.43;67.80;99266.43;105408;1284;97880;-69
2022/04/27 04:29:53;;;;;;;42.50;24.90;;;;;;;8.46;67.81;99271.74;105506;1283;96373;-68
2022/04/27 04:32:22;;;;;;;41.50;24.30;;;;;;;8.48;67.86;99274.98;105571;1283;110553;-68
2022/04/27 04:34:52;;;;;;;42.80;23.40;;;;;;;8.50;68.00;99277.02;105187;1283;97881;-69
2022/04/27 04:37:22;;;;;;;43.60;24.20;;;;;;;8.53;67.85;99277.77;105530;1283;97067;-69
2022/04/27 04:39:50;;;;;;;41.30;23.40;;;;;;;8.54;67.93;99282.95;105482;1283;112515;-68
2022/04/27 04:42:25;;;;;;;42.20;23.40;;;;;;;8.56;67.93;99287.81;105474;1283;97887;-68
2022/04/27 04:44:57;;;;;;;43.00;22.40;;;;;;;8.58;67.98;99290.16;105539;1282;109338;-68
2022/04/27 04:47:27;;;;;;;39.50;22.30;;;;;;;8.59;67.89;99293.78;105614;1283;97899;-70
2022/04/27 04:49:55;;;;;;;41.80;23.50;;;;;;;8.60;67.96;99298.30;105595;1283;96356;-69
2022/04/27 04:52:23;;;;;;;41.30;22.00;;;;;;;8.61;68.03;99296.98;105485;1283;111856;-68
2022/04/27 04:54:54;;;;;;;39.20;22.80;;;;;;;8.63;67.96;99297.23;105344;1283;95725;-68
2022/04/27 04:57:22;;;;;;;39.50;21.70;;;;;;;8.65;67.97;99301.04;105523;1283;108392;-68
2022/04/27 04:59:53;;;;;;;36.10;20.90;;;;;;;8.67;68.06;99298.08;105544;1283;97863;-68
2022/04/27 05:02:24;;;;;;;36.70;21.20;;;;;;;8.71;68.02;99301.92;105499;1283;97886;-68
2022/04/27 05:04:52;;;;;;;38.90;21.70;;;;;;;8.74;68.18;99300.49;105529;1283;111110;-68
2022/04/27 05:07:23;;;;;;;39.60;21.80;;;;;;;8.77;68.23;99302.38;105570;1282;96727;-67
2022/04/27 05:09:51;;;;;;;39.80;22.10;;;;;;;8.82;68.08;99303.77;105447;1283;108619;-67
2022/04/27 05:12:22;;;;;;;38.70;21.80;;;;;;;8.85;68.23;99307.61;105548;1283;98007;-67
2022/04/27 05:14:53;;;;;;;43.50;21.50;;;;;;;8.88;68.26;99309.20;105543;1283;97938;-68
2022/04/27 05:17:22;;;;;;;41.90;21.70;;;;;;;8.91;68.16;99312.02;105567;1283;114254;-68
2022/04/27 05:19:54;;;;;;;39.50;21.40;;;;;;;8.95;68.21;99313.21;105620;1283;97082;-67
2022/04/27 05:22:25;;;;;;;36.50;20.00;;;;;;;8.98;68.28;99312.49;105543;1283;108168;-69
2022/04/27 05:24:55;;;;;;;37.00;18.60;;;;;;;9.02;68.19;99312.92;105536;1282;97812;-67
2022/04/27 05:27:24;;;;;;;34.70;18.80;;;;;;;9.07;68.19;99313.89;105577;1283;95249;-65
2022/04/27 05:32:47;;;;;;;36.20;19.70;;;;;;;9.18;68.19;99315.64;105561;1283;98298;-68
2022/04/27 05:35:15;;;;;;;32.00;17.80;;;;;;;9.27;68.04;99322.02;105537;1283;108380;-68
2022/04/27 05:37:45;;;;;;;34.70;18.80;;;;;;;9.36;68.17;99320.89;105579;1283;97930;-67
2022/04/27 05:40:19;;;;;;;34.00;19.70;;;;;;;9.45;68.24;99322.59;105594;1283;97902;-67
2022/04/27 05:42:48;;;;;;;32.70;19.40;;;;;;;9.57;68.21;99327.51;105541;1283;112397;-68
2022/04/27 05:45:19;;;;;;;33.30;18.70;;;;;;;9.69;68.22;99329.57;105529;1283;95207;-68
2022/04/27 05:47:50;;;;;;;32.30;19.30;;;;;;;9.78;68.19;99332.36;105576;1283;108414;-66
2022/04/27 05:50:18;;;;;;;34.20;19.40;;;;;;;9.87;68.21;99330.73;105636;1283;98001;-67
2022/04/27 05:52:58;;;;;;;34.10;18.90;;;;;;;9.97;68.31;99330.61;105387;1282;96556;-69
2022/04/27 05:55:26;;;;;;;34.80;20.00;;;;;;;10.08;68.24;99333.11;105456;1283;112470;-70
2022/04/27 05:57:54;;;;;;;35.30;20.50;;;;;;;10.18;68.32;99329.57;105409;1283;95908;-69
2022/04/27 06:00:26;;;;;;;37.10;21.90;;;;;;;10.28;68.24;99334.75;105431;1282;108318;-68
2022/04/27 06:02:54;;;;;;;38.30;21.50;;;;;;;10.38;68.32;99331.95;105284;1283;97909;-68
2022/04/27 06:05:22;;;;;;;36.50;22.00;;;;;;;10.48;68.25;99334.00;105479;1282;98457;-69
2022/04/27 06:07:52;;;;;;;38.50;22.30;;;;;;;10.53;68.27;99337.40;105514;1283;112334;-69
2022/04/27 06:10:21;;;;;;;36.60;22.40;;;;;;;10.59;68.29;99339.61;105588;1283;96249;-69
2022/04/27 06:12:49;;;;;;;35.00;21.60;;;;;;;10.68;68.25;99342.92;105549;1283;108643;-68
2022/04/27 06:15:17;;;;;;;34.60;21.50;;;;;;;10.78;68.19;99342.41;105318;1284;97880;-68
2022/04/27 06:17:51;;;;;;;36.00;23.00;;;;;;;10.91;68.12;99341.52;105600;1284;97897;-68
2022/04/27 06:20:19;;;;;;;36.30;21.10;;;;;;;11.00;68.15;99343.17;105495;1284;111483;-68
2022/04/27 06:22:47;;;;;;;36.60;23.90;;;;;;;11.05;68.16;99346.04;105614;1283;97984;-69
2022/04/27 06:25:16;;;;;;;37.80;25.00;;;;;;;11.09;68.19;99342.07;105560;1283;108872;-68
2022/04/27 06:27:43;;;;;;;36.90;25.20;;;;;;;11.14;68.06;99342.41;105574;1283;97973;-69
2022/04/27 06:30:12;;;;;;;36.80;25.20;;;;;;;11.22;68.06;99341.65;105585;1283;97801;-70
2022/04/27 06:32:41;;;;;;;36.40;24.00;;;;;;;11.32;68.02;99342.54;105647;1283;112499;-69
2022/04/27 06:35:13;;;;;;;35.50;24.10;;;;;;;11.40;68.06;99347.69;105607;1282;97919;-68
2022/04/27 06:37:42;;;;;;;35.10;23.90;;;;;;;11.51;68.11;99348.48;105667;1283;108369;-68
2022/04/27 06:40:12;;;;;;;35.70;23.00;;;;;;;11.59;67.97;99348.08;105546;1283;97854;-67
2022/04/27 06:42:43;;;;;;;40.00;24.60;;;;;;;11.65;67.92;99349.42;105635;1283;95280;-67
2022/04/27 06:45:12;;;;;;;36.70;24.50;;;;;;;11.76;67.87;99348.69;105466;1283;112009;-68
2022/04/27 06:47:43;;;;;;;34.30;22.70;;;;;;;11.87;67.77;99348.60;105595;1283;98009;-66
2022/04/27 06:50:12;;;;;;;31.90;21.40;;;;;;;11.97;67.81;99351.77;105551;1282;107220;-70
2022/04/27 06:52:47;;;;;;;33.40;21.30;;;;;;;12.10;67.61;99351.73;105607;1283;95326;-69
2022/04/27 06:55:17;;;;;;;31.10;20.70;;;;;;;12.28;67.68;99354.66;105511;1282;97974;-67
2022/04/27 06:57:45;;;;;;;31.20;20.20;;;;;;;12.42;67.78;99353.98;105661;1283;112054;-67
2022/04/27 07:00:14;;;;;;;32.90;21.20;;;;;;;12.54;67.77;99353.21;105605;1283;97665;-67
2022/04/27 07:02:44;;;;;;;31.80;20.40;;;;;;;12.58;67.72;99356.98;105467;1283;110715;-70
2022/04/27 07:05:20;;;;;;;32.40;20.10;;;;;;;12.62;67.74;99354.02;105504;1283;97886;-68
2022/04/27 07:07:49;;;;;;;31.60;19.60;;;;;;;12.66;67.53;99355.48;105462;1283;98009;-68
2022/04/27 07:10:19;;;;;;;32.90;20.40;;;;;;;12.70;67.39;99358.95;105632;1283;112099;-68
2022/04/27 07:12:47;;;;;;;30.30;19.50;;;;;;;12.90;67.07;99358.48;105411;1283;97909;-67
2022/04/27 07:15:16;;;;;;;28.90;18.30;;;;;;;13.02;67.13;99360.37;105526;1283;108240;-67
2022/04/27 07:17:44;;;;;;;28.90;17.90;;;;;;;14.43;65.55;99352.60;105566;1283;97973;-68
2022/04/27 07:20:12;;;;;;;34.60;18.40;;;;;;;14.86;65.98;99356.91;105491;1282;97879;-69
2022/04/27 07:22:41;;;;;;;32.00;18.90;;;;;;;16.37;65.19;99353.25;105602;1282;112154;-67
2022/04/27 07:25:10;;;;;;;31.10;19.60;;;;;;;18.10;64.48;99344.48;105627;1283;97916;-69
2022/04/27 07:27:38;;;;;;;25.50;16.60;;;;;;;19.54;64.50;99345.73;105423;1282;108511;-68
2022/04/27 07:30:08;;;;;;;24.10;15.70;;;;;;;20.12;64.68;99348.58;105375;1283;97886;-67
2022/04/27 07:32:36;;;;;;;23.70;15.10;;;;;;;20.22;64.97;99350.41;105557;1282;97866;-69
2022/04/27 07:35:05;;;;;;;26.10;16.90;;;;;;;19.89;65.41;99358.08;105578;1283;112369;-68
2022/04/27 07:37:38;;;;;;;24.80;16.60;;;;;;;19.95;64.62;99359.97;105652;1282;97887;-67
2022/04/27 07:40:10;;;;;;;28.70;16.00;;;;;;;20.65;64.07;99361.77;105616;1283;109160;-69
2022/04/27 07:42:39;;;;;;;23.40;14.10;;;;;;;21.39;63.83;99363.15;105625;1282;95544;-66
2022/04/27 07:45:08;;;;;;;23.80;14.40;;;;;;;21.15;64.62;99365.73;105571;1283;98001;-69
2022/04/27 07:47:46;;;;;;;22.20;12.90;;;;;;;20.91;64.60;99368.65;105475;1282;112432;-68
2022/04/27 07:50:16;;;;;;;21.70;11.80;;;;;;;20.37;64.62;99371.64;105482;1283;98012;-67
2022/04/27 07:52:44;;;;;;;19.90;11.20;;;;;;;20.02;64.57;99371.98;105069;1283;108460;-68
2022/04/27 07:55:14;;;;;;;20.60;12.20;;;;;;;19.73;64.49;99378.33;105434;1282;98321;-68
2022/04/27 07:57:45;;;;;;;21.80;12.50;;;;;;;19.40;64.54;99378.46;105516;1283;98034;-68
2022/04/27 08:00:16;;;;;;;21.10;12.40;;;;;;;19.11;64.28;99379.30;105423;1283;111942;-68
2022/04/27 08:02:44;;;;;;;23.30;13.00;;;;;;;18.73;63.99;99387.59;105122;1281;97931;-68
2022/04/27 08:05:18;;;;;;;21.20;12.10;;;;;;;18.42;63.94;99388.23;105355;1281;108187;-68
2022/04/27 08:07:46;;;;;;;20.10;11.50;;;;;;;18.12;63.60;99385.33;105996;1282;96362;-69
2022/04/27 08:10:21;;;;;;;20.00;11.10;;;;;;;17.88;63.49;99388.89;105546;1282;98024;-69
2022/04/27 08:12:52;;;;;;;24.50;13.60;;;;;;;17.65;63.26;99387.81;105367;1283;111991;-70
2022/04/27 08:15:25;;;;;;;24.90;15.50;;;;;;;17.69;62.85;99388.52;105433;1283;97701;-69
2022/04/27 08:18:06;;;;;;;26.90;16.90;;;;;;;17.71;62.43;99391.25;105482;1283;108503;-69
2022/04/27 08:23:32;;;;;;;24.30;15.10;;;;;;;17.30;62.51;99404.52;105436;1283;97851;-66
2022/04/27 08:26:02;;;;;;;21.60;11.80;;;;;;;17.32;62.37;99402.89;105515;1283;111480;-69
2022/04/27 08:28:32;;;;;;;24.20;13.70;;;;;;;17.34;62.53;99407.66;105207;1283;97969;-69
2022/04/27 08:31:01;;;;;;;24.10;15.40;;;;;;;17.27;62.30;99410.27;105112;1283;108232;-69
2022/04/27 08:33:31;;;;;;;26.70;15.60;;;;;;;17.20;62.21;99407.93;105171;1283;97949;-70
2022/04/27 08:36:00;;;;;;;26.10;15.30;;;;;;;17.13;62.16;99408.91;105413;1283;98012;-69
2022/04/27 08:38:47;;;;;;;25.50;16.10;;;;;;;17.06;61.74;99410.10;105251;1283;111835;-69
2022/04/27 08:41:15;;;;;;;26.70;15.20;;;;;;;17.05;61.50;99411.33;105102;1283;97926;-68
2022/04/27 08:43:44;;;;;;;25.90;16.60;;;;;;;17.15;61.27;99415.08;105524;1282;108429;-69
2022/04/27 08:46:17;;;;;;;25.10;15.90;;;;;;;17.13;61.48;99411.61;105440;1283;97911;-69
2022/04/27 08:48:47;;;;;;;23.70;13.80;;;;;;;17.04;61.49;99415.11;105421;1283;97880;-70
2022/04/27 08:51:16;;;;;;;23.10;13.60;;;;;;;17.01;61.32;99415.77;105423;1283;111377;-69
2022/04/27 08:53:45;;;;;;;24.60;15.50;;;;;;;16.98;61.01;99412.85;105559;1282;97902;-71
2022/04/27 08:56:13;;;;;;;26.00;16.80;;;;;;;16.90;60.90;99412.10;105451;1282;107820;-68
2022/04/27 08:58:41;;;;;;;23.20;14.30;;;;;;;16.86;60.91;99413.60;105506;1283;95418;-66
2022/04/27 09:01:12;;;;;;;21.60;12.70;;;;;;;16.86;60.81;99416.21;105485;1282;97057;-67
2022/04/27 09:03:41;;;;;;;21.90;12.20;;;;;;;17.09;60.30;99411.95;105297;1283;111040;-64
2022/04/27 09:06:12;;;;;;;19.90;11.40;;;;;;;17.17;60.32;99411.92;105308;1282;97767;-68
2022/04/27 09:08:41;;;;;;;20.00;10.30;;;;;;;17.24;60.45;99406.94;105449;1283;108362;-68
2022/04/27 09:11:14;;;;;;;19.30;9.80;;;;;;;17.64;59.78;99404.77;105367;1282;97902;-67
2022/04/27 09:13:48;;;;;;;20.20;11.10;;;;;;;18.04;59.54;99406.69;105573;1282;97890;-66
2022/04/27 09:16:20;;;;;;;18.60;9.80;;;;;;;18.39;59.45;99403.06;105592;1282;111137;-68
2022/04/27 09:21:54;;;;;;;15.60;8.20;;;;;;;19.29;59.29;99400.52;105493;1283;108389;-69
2022/04/27 09:24:23;;;;;;;16.40;8.50;;;;;;;19.22;59.27;99399.04;105562;1283;95337;-69
2022/04/27 09:27:12;;;;;;;19.10;9.10;;;;;;;19.29;59.10;99398.86;105453;1282;97985;-69
2022/04/27 09:29:41;;;;;;;16.90;9.10;;;;;;;19.28;58.84;99398.09;105600;1283;112053;-67
2022/04/27 09:32:15;;;;;;;17.90;9.50;;;;;;;19.38;58.49;99391.63;105477;1283;97885;-69
2022/04/27 09:34:46;;;;;;;16.90;8.40;;;;;;;19.96;58.49;99392.95;105219;1282;107484;-68
2022/04/27 09:37:16;;;;;;;16.20;8.30;;;;;;;20.81;58.34;99392.07;105471;1282;97865;-68
2022/04/27 09:39:46;;;;;;;17.50;8.80;;;;;;;21.71;58.39;99384.93;105513;1283;97894;-69
2022/04/27 09:42:14;;;;;;;16.10;8.00;;;;;;;22.08;57.80;99384.38;105437;1282;111326;-68
2022/04/27 09:44:42;;;;;;;15.00;8.70;;;;;;;22.54;57.95;99381.92;105467;1283;97844;-67
2022/04/27 09:47:21;;;;;;;14.50;7.80;;;;;;;23.24;57.63;99379.55;105290;1282;108341;-69
2022/04/27 09:49:54;;;;;;;13.80;7.70;;;;;;;23.61;57.47;99381.66;105421;1282;97967;-68
2022/04/27 09:52:27;;;;;;;15.20;7.50;;;;;;;23.45;57.75;99377.77;105372;1283;97880;-70
2022/04/27 09:54:59;;;;;;;17.40;8.70;;;;;;;22.80;56.99;99377.58;105299;1282;112318;-67
2022/04/27 09:57:31;;;;;;;16.00;8.30;;;;;;;22.22;57.27;99379.84;105426;1283;98031;-68
2022/04/27 10:00:00;;;;;;;17.50;9.00;;;;;;;21.72;57.07;99380.86;105465;1282;108428;-69
2022/04/27 10:02:30;;;;;;;17.70;8.30;;;;;;;20.99;57.08;99381.26;105503;1282;96598;-69
2022/04/27 10:05:01;;;;;;;18.00;8.50;;;;;;;20.64;56.85;99383.48;105397;1283;97922;-69
2022/04/27 10:07:32;;;;;;;15.40;8.40;;;;;;;20.27;56.59;99379.72;105424;1282;111215;-67
2022/04/27 10:10:04;;;;;;;17.80;9.30;;;;;;;20.00;56.74;99386.40;105191;1282;97001;-68
2022/04/27 10:12:37;;;;;;;18.50;8.90;;;;;;;19.73;56.54;99389.19;105412;1283;108504;-70
2022/04/27 10:15:06;;;;;;;17.00;8.40;;;;;;;19.40;56.31;99388.58;105484;1283;97488;-70
2022/04/27 10:17:34;;;;;;;16.80;8.60;;;;;;;19.10;56.29;99386.05;105332;1283;97996;-69
2022/04/27 10:20:30;;;;;;;16.30;7.70;;;;;;;18.85;56.00;99387.91;105218;1283;112091;-69
2022/04/27 10:23:32;;;;;;;15.80;7.50;;;;;;;18.37;55.76;99391.80;105470;1283;97870;-69
2022/04/27 10:26:18;;;;;;;25.10;8.20;;;;;;;17.93;55.43;99392.63;105512;1283;106074;-69
2022/04/27 10:28:54;;;;;;;14.80;7.20;;;;;;;17.63;55.39;99397.52;105588;1283;96341;-68
2022/04/27 10:31:42;;;;;;;16.60;7.80;;;;;;;17.37;55.30;99402.02;105506;1282;98476;-69
2022/04/27 10:34:18;;;;;;;13.20;6.10;;;;;;;17.06;55.08;99400.76;105478;1283;112160;-70
2022/04/27 10:36:50;;;;;;;15.50;7.50;;;;;;;16.80;55.00;99405.20;105532;1282;96268;-69
2022/04/27 10:39:21;;;;;;;14.50;6.60;;;;;;;16.60;54.90;99406.85;105443;1283;108236;-67
2022/04/27 10:42:04;;;;;;;14.30;7.30;;;;;;;16.43;54.76;99404.45;105366;1283;97963;-68
2022/04/27 10:44:59;;;;;;;16.20;7.20;;;;;;;16.28;54.77;99403.29;105565;1283;96317;-66
2022/04/27 10:47:34;;;;;;;17.60;7.40;;;;;;;16.09;54.74;99409.27;105527;1282;112106;-68
2022/04/27 10:50:13;;;;;;;16.00;8.10;;;;;;;16.00;54.64;99407.95;105527;1283;97907;-68
2022/04/27 10:52:55;;;;;;;15.50;7.20;;;;;;;15.92;54.46;99405.59;105357;1282;108321;-68
2022/04/27 10:55:35;;;;;;;18.10;7.60;;;;;;;15.90;54.42;99407.59;105469;1283;97902;-68
2022/04/27 10:58:14;;;;;;;17.90;8.40;;;;;;;15.88;54.45;99405.30;105566;1283;97880;-69
2022/04/27 11:00:57;;;;;;;17.90;8.20;;;;;;;15.84;54.24;99405.95;105545;1282;112278;-69
2022/04/27 11:03:26;;;;;;;;;;;;;;;15.83;54.18;99403.02;105597;1283;97988;-70
2022/04/27 11:06:00;;;;;;;17.20;7.60;;;;;;;15.79;54.24;99403.20;105441;1283;108388;-69
2022/04/27 11:08:58;;;;;;;15.30;7.00;;;;;;;15.77;54.06;99403.55;105603;1283;97976;-69
2022/04/27 11:11:27;;;;;;;16.60;7.50;;;;;;;15.69;53.88;99403.83;105649;1283;97847;-68
2022/04/27 11:14:01;;;;;;;14.20;6.60;;;;;;;15.64;53.86;99405.27;105365;1283;111482;-67
2022/04/27 11:16:29;;;;;;;12.70;5.90;;;;;;;15.61;53.81;99405.08;105415;1282;95185;-68
2022/04/27 11:18:59;;;;;;;12.60;6.20;;;;;;;15.61;53.79;99406.04;105609;1283;108286;-67
2022/04/27 11:21:30;;;;;;;14.40;6.00;;;;;;;15.62;53.68;99403.25;105430;1283;97967;-69
2022/04/27 11:23:58;;;;;;;11.40;5.30;;;;;;;15.66;53.61;99401.16;105459;1282;98696;-69
2022/04/27 11:26:28;;;;;;;11.90;6.00;;;;;;;15.69;53.60;99398.86;105653;1283;112422;-68
2022/04/27 11:28:58;;;;;;;11.80;5.50;;;;;;;15.73;53.43;99396.38;105631;1283;98215;-68
2022/04/27 11:31:26;;;;;;;12.50;6.10;;;;;;;15.75;53.53;99401.20;105527;1283;107791;-69
2022/04/27 11:33:54;;;;;;;14.00;6.60;;;;;;;15.73;53.35;99402.80;105581;1283;97978;-69
2022/04/27 11:36:26;;;;;;;15.60;6.20;;;;;;;15.74;53.29;99403.73;105601;1283;96999;-69
2022/04/27 11:38:55;;;;;;;15.10;6.40;;;;;;;15.75;53.16;99400.63;105403;1282;112061;-70
2022/04/27 11:41:24;;;;;;;14.30;6.20;;;;;;;15.81;53.26;99398.74;105595;1282;98313;-71
2022/04/27 11:43:56;;;;;;;13.10;6.00;;;;;;;15.90;53.43;99395.45;105613;1283;108317;-68
2022/04/27 11:46:37;;;;;;;17.40;7.00;;;;;;;15.84;52.85;99392.67;105645;1283;97818;-69